createdAt,value
2017-04-13T00:00:30.946Z,14.37
2017-04-13T00:02:43.217Z,14.35
2017-04-13T00:04:55.445Z,14.32
2017-04-13T00:07:07.742Z,14.29
2017-04-13T00:09:19.999Z,14.27
2017-04-13T00:11:32.264Z,14.26
2017-04-13T00:13:44.594Z,14.23
2017-04-13T00:15:56.888Z,14.23
2017-04-13T00:18:09.159Z,14.26
2017-04-13T00:20:16.768Z,14.27
2017-04-13T00:22:27.266Z,14.24
2017-04-13T00:24:39.612Z,14.2
2017-04-13T00:26:51.866Z,14.19
2017-04-13T00:28:59.133Z,14.18
2017-04-13T00:31:11.498Z,14.18
2017-04-13T00:33:24.086Z,14.18
2017-04-13T00:35:31.450Z,14.18
2017-04-13T00:37:43.652Z,14.16
2017-04-13T00:39:50.990Z,14.14
2017-04-13T00:42:03.258Z,14.09
2017-04-13T00:44:15.522Z,14.01
2017-04-13T00:46:27.749Z,13.94
2017-04-13T00:48:39.962Z,13.88
2017-04-13T00:50:52.163Z,13.79
2017-04-13T00:52:59.644Z,13.74
2017-04-13T00:55:12.238Z,13.71
2017-04-13T00:57:25.051Z,13.65
2017-04-13T00:59:37.369Z,13.58
2017-04-13T01:01:49.587Z,13.55
2017-04-13T01:04:01.997Z,13.53
2017-04-13T01:06:09.296Z,13.52
2017-04-13T01:08:19.856Z,13.5
2017-04-13T01:10:32.173Z,13.48
2017-04-13T01:14:55.174Z,13.43
2017-04-13T01:17:07.446Z,13.4
2017-04-13T01:19:19.687Z,13.37
2017-04-13T01:21:31.919Z,13.34
2017-04-13T01:23:44.129Z,13.29
2017-04-13T01:25:51.402Z,13.22
2017-04-13T01:28:03.763Z,13.17
2017-04-13T01:30:16.503Z,13.12
2017-04-13T01:32:29.049Z,13.07
2017-04-13T01:34:41.359Z,12.99
2017-04-13T01:36:53.645Z,12.96
2017-04-13T01:39:00.950Z,12.91
2017-04-13T01:41:13.158Z,12.9
2017-04-13T01:43:25.834Z,12.9
2017-04-13T01:45:38.518Z,12.93
2017-04-13T01:47:50.842Z,12.94
2017-04-13T01:50:03.038Z,12.94
2017-04-13T01:52:15.230Z,12.95
2017-04-13T01:54:27.497Z,12.98
2017-04-13T01:56:34.705Z,13
2017-04-13T01:58:46.925Z,13.05
2017-04-13T02:00:59.128Z,13.08
2017-04-13T02:03:11.511Z,13.09
2017-04-13T02:05:24.028Z,13.09
2017-04-13T02:07:36.414Z,13.11
2017-04-13T02:09:43.885Z,13.11
2017-04-13T02:11:51.134Z,13.15
2017-04-13T02:14:03.404Z,13.18
2017-04-13T02:16:15.596Z,13.2
2017-04-13T02:18:27.899Z,13.22
2017-04-13T02:20:40.154Z,13.24
2017-04-13T02:22:52.380Z,13.26
2017-04-13T02:25:04.689Z,13.26
2017-04-13T02:27:16.997Z,13.26
2017-04-13T02:29:29.277Z,13.29
2017-04-13T02:31:41.494Z,13.33
2017-04-13T02:33:53.905Z,13.36
2017-04-13T02:36:06.185Z,13.41
2017-04-13T02:38:18.422Z,13.45
2017-04-13T02:40:30.732Z,13.51
2017-04-13T02:42:43.237Z,13.57
2017-04-13T02:44:55.732Z,13.63
2017-04-13T02:47:03.073Z,13.69
2017-04-13T02:49:16.073Z,13.74
2017-04-13T02:51:28.296Z,13.79
2017-04-13T02:53:40.529Z,13.83
2017-04-13T02:55:52.837Z,13.85
2017-04-13T02:58:05.090Z,13.87
2017-04-13T03:00:17.185Z,13.88
2017-04-13T03:02:29.503Z,13.9
2017-04-13T03:04:41.878Z,13.9
2017-04-13T03:06:54.128Z,13.91
2017-04-13T03:09:06.437Z,13.92
2017-04-13T03:11:18.707Z,13.92
2017-04-13T03:13:31.365Z,13.93
2017-04-13T03:15:38.751Z,13.93
2017-04-13T03:17:50.993Z,13.93
2017-04-13T03:20:04.421Z,13.91
2017-04-13T03:22:17.248Z,13.89
2017-04-13T03:24:29.549Z,13.86
2017-04-13T03:26:41.876Z,13.84
2017-04-13T03:28:54.177Z,13.83
2017-04-13T03:31:06.489Z,13.8
2017-04-13T03:33:18.679Z,13.78
2017-04-13T03:35:30.951Z,13.8
2017-04-13T03:37:43.246Z,13.81
2017-04-13T03:39:55.450Z,13.82
2017-04-13T03:42:07.775Z,13.85
2017-04-13T03:44:20.109Z,13.88
2017-04-13T03:46:32.362Z,13.9
2017-04-13T03:48:44.649Z,13.91
2017-04-13T03:50:56.846Z,13.93
2017-04-13T03:53:09.321Z,13.96
2017-04-13T03:55:21.947Z,13.96
2017-04-13T03:57:34.263Z,13.98
2017-04-13T03:59:46.623Z,13.97
2017-04-13T04:01:58.841Z,13.98
2017-04-13T04:04:11.158Z,13.98
2017-04-13T04:06:23.371Z,13.98
2017-04-13T04:08:35.700Z,13.98
2017-04-13T04:10:48.039Z,13.96
2017-04-13T04:13:00.191Z,13.95
2017-04-13T04:15:12.434Z,13.94
2017-04-13T04:17:24.649Z,13.94
2017-04-13T04:19:37.017Z,13.92
2017-04-13T04:21:49.284Z,13.89
2017-04-13T04:24:01.677Z,13.88
2017-04-13T04:26:13.930Z,13.87
2017-04-13T04:28:26.213Z,13.85
2017-04-13T04:30:38.546Z,13.83
2017-04-13T04:32:51.051Z,13.83
2017-04-13T04:35:03.493Z,13.82
2017-04-13T04:37:15.684Z,13.84
2017-04-13T04:39:28.162Z,13.87
2017-04-13T04:41:40.381Z,13.9
2017-04-13T04:43:52.844Z,13.93
2017-04-13T04:46:05.053Z,13.95
2017-04-13T04:48:17.284Z,13.98
2017-04-13T04:50:29.430Z,14.02
2017-04-13T04:52:41.640Z,14.05
2017-04-13T04:54:53.918Z,14.11
2017-04-13T04:57:06.161Z,14.15
2017-04-13T04:59:21.505Z,14.18
2017-04-13T05:01:35.399Z,14.23
2017-04-13T05:03:47.695Z,14.29
2017-04-13T05:06:01.714Z,14.32
2017-04-13T05:08:14.015Z,14.33
2017-04-13T05:10:26.456Z,14.38
2017-04-13T05:12:38.778Z,14.41
2017-04-13T05:14:52.720Z,14.44
2017-04-13T05:17:04.937Z,14.47
2017-04-13T05:19:17.239Z,14.5
2017-04-13T05:21:29.482Z,14.54
2017-04-13T05:23:41.724Z,14.64
2017-04-13T05:25:54.009Z,14.73
2017-04-13T05:28:01.331Z,14.78
2017-04-13T05:30:13.543Z,14.81
2017-04-13T05:32:25.788Z,14.83
2017-04-13T05:34:33.083Z,14.87
2017-04-13T05:36:45.382Z,14.91
2017-04-13T05:38:57.641Z,15
2017-04-13T05:41:10.515Z,15.08
2017-04-13T05:43:37.127Z,15.2
2017-04-13T05:46:51.825Z,15.4
2017-04-13T05:49:26.563Z,15.45
2017-04-13T05:51:52.078Z,15.47
2017-04-13T05:54:21.829Z,15.53
2017-04-13T05:56:29.431Z,15.55
2017-04-13T05:58:47.262Z,15.59
2017-04-13T06:01:01.136Z,15.62
2017-04-13T06:03:24.777Z,15.62
2017-04-13T06:05:39.745Z,15.62
2017-04-13T06:08:11.123Z,15.6
2017-04-13T06:10:31.880Z,15.52
2017-04-13T06:12:44.586Z,15.48
2017-04-13T06:15:19.105Z,15.5
2017-04-13T06:17:47.175Z,15.57
2017-04-13T06:20:00.031Z,15.58
2017-04-13T06:22:13.091Z,15.61
2017-04-13T06:24:26.620Z,15.59
2017-04-13T06:26:39.203Z,15.53
2017-04-13T06:28:48.098Z,15.48
2017-04-13T06:31:00.562Z,15.46
2017-04-13T06:33:14.119Z,15.38
2017-04-13T06:35:26.811Z,15.28
2017-04-13T06:37:39.453Z,15.13
2017-04-13T06:39:52.703Z,15.03
2017-04-13T06:42:19.824Z,14.99
2017-04-13T06:44:54.999Z,14.98
2017-04-13T06:47:08.822Z,14.93
2017-04-13T06:51:48.603Z,14.81
2017-04-13T06:54:17.034Z,14.79
2017-04-13T06:56:32.865Z,14.79
2017-04-13T06:58:45.977Z,14.81
2017-04-13T07:00:58.931Z,14.8
2017-04-13T07:03:11.255Z,14.79
2017-04-13T07:05:24.169Z,14.78
2017-04-13T07:07:49.844Z,14.81
2017-04-13T07:10:27.680Z,14.82
2017-04-13T07:13:05.173Z,14.89
2017-04-13T07:15:52.103Z,14.98
2017-04-13T07:18:27.882Z,14.96
2017-04-13T07:20:57.384Z,14.95
2017-04-13T07:23:48.815Z,15.21
2017-04-13T07:26:38.049Z,15.21
2017-04-13T07:29:06.311Z,15.16
2017-04-13T07:31:19.505Z,15.12
2017-04-13T07:33:32.421Z,15.2
2017-04-13T07:35:47.316Z,15.54
2017-04-13T07:38:00.518Z,15.67
2017-04-13T07:40:28.948Z,15.78
2017-04-13T07:43:13.372Z,16.16
2017-04-13T07:45:57.692Z,16.31
2017-04-13T07:48:28.707Z,16.54
2017-04-13T07:50:43.098Z,17.25
2017-04-13T07:52:57.758Z,18
2017-04-13T07:55:12.099Z,18.83
2017-04-13T07:57:25.106Z,19.28
2017-04-13T07:59:40.290Z,19.69
2017-04-13T08:01:53.513Z,20.14
2017-04-13T08:04:06.577Z,20.59
2017-04-13T08:06:19.212Z,20.68
2017-04-13T08:08:33.064Z,20.62
2017-04-13T08:10:45.295Z,20.19
2017-04-13T08:12:47.565Z,19.46
2017-04-13T08:15:00.119Z,18.74
2017-04-13T08:17:12.334Z,18.3
2017-04-13T08:19:24.538Z,18.02
2017-04-13T08:21:36.967Z,17.83
2017-04-13T08:23:49.396Z,17.58
2017-04-13T08:26:01.825Z,17.06
2017-04-13T08:28:14.091Z,16.64
2017-04-13T08:30:26.497Z,16.2
2017-04-13T08:32:38.829Z,16.07
2017-04-13T08:34:51.770Z,16.05
2017-04-13T08:39:11.053Z,16.08
2017-04-13T08:41:18.286Z,15.89
2017-04-13T08:43:30.746Z,15.79
2017-04-13T08:45:43.125Z,15.81
2017-04-13T08:47:55.312Z,15.94
2017-04-13T08:50:07.526Z,16.18
2017-04-13T08:52:19.801Z,16.76
2017-04-13T08:54:32.026Z,17.55
2017-04-13T08:56:44.292Z,17.52
2017-04-13T08:58:56.551Z,17.64
2017-04-13T09:01:09.160Z,18.04
2017-04-13T09:03:21.545Z,18.18
2017-04-13T09:05:34.079Z,18.39
2017-04-13T09:07:46.740Z,18.66
2017-04-13T09:09:59.288Z,18.4
2017-04-13T09:12:12.059Z,18.22
2017-04-13T09:14:25.186Z,18.13
2017-04-13T09:16:37.803Z,18.02
2017-04-13T09:18:50.146Z,17.99
2017-04-13T09:21:02.462Z,18.01
2017-04-13T09:23:14.982Z,17.92
2017-04-13T09:25:27.304Z,17.74
2017-04-13T09:27:39.639Z,17.77
2017-04-13T09:29:46.984Z,18.2
2017-04-13T09:31:59.221Z,18.46
2017-04-13T09:34:11.433Z,18.27
2017-04-13T09:36:23.699Z,17.85
2017-04-13T09:38:36.374Z,17.54
2017-04-13T09:40:49.913Z,17.44
2017-04-13T09:43:02.523Z,17.2
2017-04-13T09:45:15.057Z,17.09
2017-04-13T09:47:27.392Z,17.45
2017-04-13T09:49:40.088Z,17.58
2017-04-13T09:51:52.460Z,17.63
2017-04-13T09:54:04.766Z,17.89
2017-04-13T09:56:17.068Z,18.67
2017-04-13T09:58:29.386Z,18.92
2017-04-13T10:00:41.679Z,19.36
2017-04-13T10:02:53.916Z,19.94
2017-04-13T10:05:06.531Z,20.34
2017-04-13T10:07:18.865Z,20.73
2017-04-13T10:09:31.107Z,20.92
2017-04-13T10:11:43.488Z,21.08
2017-04-13T10:13:55.846Z,20.27
2017-04-13T10:16:22.153Z,19.94
2017-04-13T10:18:38.363Z,19.74
2017-04-13T10:20:50.933Z,19.27
2017-04-13T10:23:03.198Z,19.19
2017-04-13T10:25:15.375Z,19.6
2017-04-13T10:27:27.732Z,20.85
2017-04-13T10:29:44.164Z,21.4
2017-04-13T10:32:18.985Z,21.24
2017-04-13T10:34:34.224Z,20.36
2017-04-13T10:36:57.551Z,20.02
2017-04-13T10:39:09.842Z,20.01
2017-04-13T10:41:41.691Z,20.69
2017-04-13T10:44:02.397Z,21.71
2017-04-13T10:46:16.800Z,22.93
2017-04-13T10:48:29.481Z,23.35
2017-04-13T10:50:42.728Z,23.54
2017-04-13T10:53:05.258Z,23.12
2017-04-13T10:55:31.874Z,22.38
2017-04-13T10:58:22.254Z,21.69
2017-04-13T11:01:21.322Z,22.15
2017-04-13T11:04:17.598Z,22.74
2017-04-13T11:07:11.815Z,22.54
2017-04-13T11:10:11.556Z,22.61
2017-04-13T11:13:11.509Z,22.78
2017-04-13T11:16:06.318Z,22.28
2017-04-13T11:19:05.670Z,22.15
2017-04-13T11:22:04.897Z,23.26
2017-04-13T11:25:02.188Z,24.61
2017-04-13T11:27:14.649Z,25.82
2017-04-13T11:29:27.371Z,26.72
2017-04-13T11:31:40.643Z,27.15
2017-04-13T11:33:54.008Z,27.01
2017-04-13T11:36:06.701Z,26.78
2017-04-13T11:38:18.959Z,26.28
2017-04-13T11:40:31.312Z,26.07
2017-04-13T11:42:43.598Z,26.23
2017-04-13T11:44:51.106Z,25.49
2017-04-13T11:46:58.550Z,24.84
2017-04-13T11:49:09.052Z,24.12
2017-04-13T11:51:21.425Z,22.7
2017-04-13T11:53:28.688Z,21.87
2017-04-13T11:55:41.066Z,21.24
2017-04-13T11:57:53.457Z,21.07
2017-04-13T12:00:05.825Z,21.56
2017-04-13T12:02:18.061Z,22.05
2017-04-13T12:04:30.418Z,22.6
2017-04-13T12:06:42.728Z,23.7
2017-04-13T12:08:55.000Z,26.07
2017-04-13T12:11:08.301Z,28.19
2017-04-13T12:13:20.918Z,31.74
2017-04-13T12:15:28.364Z,32.18
2017-04-13T12:17:40.648Z,32.75
2017-04-13T12:19:52.933Z,31.88
2017-04-13T12:22:05.293Z,34.75
2017-04-13T12:24:17.565Z,32.34
2017-04-13T12:26:29.865Z,30.18
2017-04-13T12:28:42.297Z,27.37
2017-04-13T12:30:54.658Z,27.86
2017-04-13T12:33:07.340Z,28.47
2017-04-13T12:35:19.674Z,26.82
2017-04-13T12:37:49.634Z,26.42
2017-04-13T12:40:16.236Z,25.85
2017-04-13T12:42:28.609Z,24.34
2017-04-13T12:44:40.880Z,23.1
2017-04-13T12:46:53.393Z,22.13
2017-04-13T12:49:05.734Z,21.29
2017-04-13T12:51:18.233Z,20.7
2017-04-13T12:53:25.918Z,20.14
2017-04-13T12:55:38.280Z,19.72
2017-04-13T12:57:50.581Z,19.86
2017-04-13T13:00:02.911Z,20.79
2017-04-13T13:02:15.400Z,21.48
2017-04-13T13:04:27.793Z,21.47
2017-04-13T13:06:35.092Z,22.45
2017-04-13T13:08:47.285Z,23.73
2017-04-13T13:10:59.555Z,24.03
2017-04-13T13:13:11.780Z,24.7
2017-04-13T13:15:24.074Z,25.56
2017-04-13T13:17:31.384Z,25.93
2017-04-13T13:19:43.616Z,27.73
2017-04-13T13:21:55.871Z,28.81
2017-04-13T13:24:08.088Z,28.04
2017-04-13T13:26:20.366Z,26.68
2017-04-13T13:28:32.661Z,27.31
2017-04-13T13:30:45.107Z,27.21
2017-04-13T13:32:57.303Z,25.93
2017-04-13T13:35:09.606Z,24.85
2017-04-13T13:37:21.844Z,24.24
2017-04-13T13:39:34.065Z,24.63
2017-04-13T13:41:46.353Z,25.03
2017-04-13T13:43:58.595Z,27.59
2017-04-13T13:46:10.958Z,28.25
2017-04-13T13:48:23.386Z,27.3
2017-04-13T13:50:35.663Z,26.2
2017-04-13T13:52:47.962Z,25.89
2017-04-13T13:55:00.244Z,25.93
2017-04-13T13:57:12.875Z,26.55
2017-04-13T13:59:25.322Z,26.71
2017-04-13T14:01:37.670Z,27.63
2017-04-13T14:03:49.955Z,28.99
2017-04-13T14:06:02.287Z,29
2017-04-13T14:08:14.714Z,27.58
2017-04-13T14:10:26.982Z,26.82
2017-04-13T14:12:39.604Z,26.81
2017-04-13T14:14:52.067Z,25.82
2017-04-13T14:17:04.568Z,24.91
2017-04-13T14:19:16.915Z,24.48
2017-04-13T14:21:29.349Z,24.07
2017-04-13T14:23:41.676Z,24.1
2017-04-13T14:25:54.045Z,24.13
2017-04-13T14:28:06.496Z,23.78
2017-04-13T14:30:14.052Z,23.53
2017-04-13T14:32:26.271Z,23.63
2017-04-13T14:34:38.744Z,23.7
2017-04-13T14:36:51.181Z,23.28
2017-04-13T14:39:03.470Z,22.53
2017-04-13T14:41:15.767Z,21.86
2017-04-13T14:43:28.073Z,21.43
2017-04-13T14:45:40.423Z,21.42
2017-04-13T14:47:52.949Z,21.5
2017-04-13T14:50:05.263Z,22.13
2017-04-13T14:52:17.578Z,23.51
2017-04-13T14:54:30.008Z,25.13
2017-04-13T14:56:42.296Z,25.31
2017-04-13T14:58:54.734Z,24.6
2017-04-13T15:01:06.997Z,23.27
2017-04-13T15:03:19.323Z,22.43
2017-04-13T15:05:31.632Z,22.34
2017-04-13T15:07:43.919Z,22.32
2017-04-13T15:09:57.129Z,22.05
2017-04-13T15:12:10.927Z,21.75
2017-04-13T15:14:23.908Z,22.05
2017-04-13T15:16:38.036Z,22.4
2017-04-13T15:18:46.894Z,22.09
2017-04-13T15:21:01.597Z,21.72
2017-04-13T15:23:15.398Z,21.57
2017-04-13T15:25:29.310Z,21.5
2017-04-13T15:27:43.951Z,21.29
2017-04-13T15:29:57.511Z,21.12
2017-04-13T15:32:12.193Z,21.08
2017-04-13T15:34:26.228Z,21.3
2017-04-13T15:36:40.224Z,21.96
2017-04-13T15:38:54.593Z,22.46
2017-04-13T15:41:14.653Z,22.36
2017-04-13T15:43:28.249Z,22.14
2017-04-13T15:45:42.635Z,22.27
2017-04-13T15:47:57.561Z,22.55
2017-04-13T15:50:06.783Z,22.53
2017-04-13T15:52:20.483Z,22.77
2017-04-13T15:54:36.225Z,23.85
2017-04-13T15:56:51.635Z,24.51
2017-04-13T15:59:04.048Z,24.76
2017-04-13T16:01:19.999Z,24.59
2017-04-13T16:03:34.463Z,24.23
2017-04-13T16:05:47.372Z,23.87
2017-04-13T16:08:00.241Z,23.99
2017-04-13T16:10:13.214Z,23.63
2017-04-13T16:12:25.678Z,23.11
2017-04-13T16:14:38.079Z,22.59
2017-04-13T16:16:50.369Z,22.37
2017-04-13T16:19:02.798Z,22.22
2017-04-13T16:21:15.032Z,22.05
2017-04-13T16:23:27.366Z,21.77
2017-04-13T16:25:39.718Z,21.46
2017-04-13T16:27:51.972Z,21.08
2017-04-13T16:30:04.749Z,20.64
2017-04-13T16:32:16.991Z,20.29
2017-04-13T16:34:29.379Z,19.93
2017-04-13T16:36:41.673Z,19.66
2017-04-13T16:38:54.062Z,19.42
2017-04-13T16:41:06.541Z,19.2
2017-04-13T16:43:18.954Z,19.01
2017-04-13T16:45:31.457Z,18.75
2017-04-13T16:47:43.682Z,18.54
2017-04-13T16:49:55.993Z,18.33
2017-04-13T16:52:08.334Z,18.08
2017-04-13T16:54:15.763Z,17.92
2017-04-13T16:56:28.266Z,17.78
2017-04-13T16:58:40.721Z,17.63
2017-04-13T17:00:53.115Z,17.47
2017-04-13T17:03:00.440Z,17.29
2017-04-13T17:05:12.887Z,17.12
2017-04-13T17:07:45.959Z,16.96
2017-04-13T17:10:37.954Z,16.78
2017-04-13T17:13:36.176Z,16.57
2017-04-13T17:16:29.832Z,16.38
2017-04-13T17:19:33.818Z,16.23
2017-04-13T17:22:42.505Z,16.03
2017-04-13T17:25:45.878Z,15.86
2017-04-13T17:28:46.917Z,15.72
2017-04-13T17:31:51.182Z,15.64
2017-04-13T17:34:49.387Z,15.57
2017-04-13T17:37:48.447Z,15.49
2017-04-13T17:40:50.446Z,15.35
2017-04-13T17:43:47.449Z,15.13
2017-04-13T17:46:50.957Z,14.87
2017-04-13T17:49:53.536Z,14.58
2017-04-13T17:52:11.264Z,14.37
2017-04-13T17:54:24.514Z,14.17
2017-04-13T17:56:37.000Z,13.96
2017-04-13T17:58:49.929Z,13.84
2017-04-13T18:01:02.320Z,13.77
2017-04-13T18:03:14.583Z,13.65
2017-04-13T18:05:26.906Z,13.51
2017-04-13T18:07:34.312Z,13.4
2017-04-13T18:09:44.930Z,13.26
2017-04-13T18:11:57.230Z,13.15
2017-04-13T18:14:11.910Z,13.02
2017-04-13T18:16:25.099Z,12.86
2017-04-13T18:18:37.650Z,12.66
2017-04-13T18:20:49.989Z,12.47
2017-04-13T18:23:59.691Z,12.22
2017-04-13T18:26:12.329Z,12.09
2017-04-13T18:28:25.145Z,12.02
2017-04-13T18:30:55.019Z,11.93
2017-04-13T18:33:47.864Z,11.76
2017-04-13T18:36:37.442Z,11.57
2017-04-13T18:39:27.935Z,11.37
2017-04-13T18:42:08.214Z,11.17
2017-04-13T18:44:23.423Z,11.02
2017-04-13T18:46:36.989Z,10.89
2017-04-13T18:48:51.403Z,10.77
2017-04-13T18:51:21.835Z,10.67
2017-04-13T18:53:37.355Z,10.59
2017-04-13T18:55:49.669Z,10.51
2017-04-13T18:57:57.047Z,10.4
2017-04-13T19:00:14.790Z,10.26
2017-04-13T19:02:27.198Z,10.11
2017-04-13T19:04:40.884Z,9.98
2017-04-13T19:06:53.150Z,9.86
2017-04-13T19:09:05.479Z,9.78
2017-04-13T19:11:12.848Z,9.76
2017-04-13T19:13:25.204Z,9.72
2017-04-13T19:15:37.442Z,9.67
2017-04-13T19:17:49.749Z,9.59
2017-04-13T19:20:02.098Z,9.5
2017-04-13T19:22:14.476Z,9.4
2017-04-13T19:24:26.891Z,9.44
2017-04-13T19:26:40.426Z,9.44
2017-04-13T19:28:52.880Z,9.42
2017-04-13T19:31:07.901Z,9.43
2017-04-13T19:33:20.204Z,9.4
2017-04-13T19:35:32.663Z,9.38
2017-04-13T19:37:40.100Z,9.38
2017-04-13T19:39:52.488Z,9.33
2017-04-13T19:41:59.947Z,9.35
2017-04-13T19:44:12.372Z,9.38
2017-04-13T19:46:24.663Z,9.4
2017-04-13T19:48:37.001Z,9.36
2017-04-13T19:50:49.302Z,9.32
2017-04-13T19:53:01.580Z,9.3
2017-04-13T19:55:09.098Z,9.27
2017-04-13T19:57:21.427Z,9.21
2017-04-13T19:59:33.968Z,9.13
2017-04-13T20:01:46.258Z,9.04
2017-04-13T20:03:58.718Z,8.96
2017-04-13T20:06:11.149Z,8.86
2017-04-13T20:08:23.606Z,8.78
2017-04-13T20:10:35.967Z,8.73
2017-04-13T20:12:48.273Z,8.68
2017-04-13T20:15:01.561Z,8.63
2017-04-13T20:17:13.890Z,8.58
2017-04-13T20:19:27.263Z,8.5
2017-04-13T20:21:40.577Z,8.41
2017-04-13T20:23:54.665Z,8.28
2017-04-13T20:26:08.249Z,8.17
2017-04-13T20:28:20.850Z,8.05
2017-04-13T20:30:29.286Z,7.96
2017-04-13T20:32:42.435Z,7.91
2017-04-13T20:34:55.312Z,7.86
2017-04-13T20:37:08.763Z,7.81
2017-04-13T20:39:23.718Z,7.82
2017-04-13T20:41:37.767Z,7.83
2017-04-13T20:43:52.309Z,7.83
2017-04-13T20:46:05.225Z,7.86
2017-04-13T20:48:34.171Z,7.87
2017-04-13T20:50:57.810Z,7.83
2017-04-13T20:53:05.693Z,7.83
2017-04-13T20:55:18.032Z,7.8
2017-04-13T20:57:30.578Z,7.79
2017-04-13T20:59:44.304Z,7.84
2017-04-13T21:01:55.723Z,7.84
2017-04-13T21:04:04.527Z,7.92
2017-04-13T21:06:18.177Z,7.99
2017-04-13T21:08:31.923Z,8.03
2017-04-13T21:10:44.949Z,8.05
2017-04-13T21:12:57.897Z,8.05
2017-04-13T21:15:10.945Z,8.12
2017-04-13T21:17:24.854Z,8.3
2017-04-13T21:19:37.376Z,8.47
2017-04-13T21:21:50.952Z,8.65
2017-04-13T21:24:03.943Z,8.81
2017-04-13T21:26:17.456Z,9
2017-04-13T21:28:31.099Z,9.16
2017-04-13T21:30:44.629Z,9.3
2017-04-13T21:32:52.617Z,9.38
2017-04-13T21:35:05.561Z,9.44
2017-04-13T21:37:19.041Z,9.52
2017-04-13T21:39:32.125Z,9.61
2017-04-13T21:41:45.170Z,9.72
2017-04-13T21:43:57.819Z,9.84
2017-04-13T21:46:10.818Z,9.92
2017-04-13T21:48:23.453Z,9.99
2017-04-13T21:50:36.371Z,10.03
2017-04-13T21:52:50.019Z,10.07
2017-04-13T21:55:05.361Z,10.14
2017-04-13T21:57:21.343Z,10.18
2017-04-13T21:59:35.159Z,10.23
2017-04-13T22:01:48.399Z,10.3
2017-04-13T22:04:01.494Z,10.36
2017-04-13T22:06:10.223Z,10.41
2017-04-13T22:08:18.475Z,10.46
2017-04-13T22:10:31.374Z,10.49
2017-04-13T22:12:44.297Z,10.5
2017-04-13T22:14:57.229Z,10.51
2017-04-13T22:17:11.118Z,10.5
2017-04-13T22:19:24.714Z,10.49
2017-04-13T22:21:38.500Z,10.49
2017-04-13T22:23:51.260Z,10.49
2017-04-13T22:26:03.659Z,10.47
2017-04-13T22:28:16.089Z,10.43
2017-04-13T22:30:28.374Z,10.36
2017-04-13T22:32:40.688Z,10.32
2017-04-13T22:34:53.956Z,10.31
2017-04-13T22:37:06.266Z,10.31
2017-04-13T22:39:18.679Z,10.33
2017-04-13T22:41:31.138Z,10.38
2017-04-13T22:43:43.570Z,10.43
2017-04-13T22:45:55.833Z,10.5
2017-04-13T22:48:08.068Z,10.56
2017-04-13T22:50:20.539Z,10.61
2017-04-13T22:52:32.747Z,10.65
2017-04-13T22:54:45.088Z,10.69
2017-04-13T22:56:52.407Z,10.73
2017-04-13T22:59:04.622Z,10.76
2017-04-13T23:01:16.916Z,10.75
2017-04-13T23:03:29.289Z,10.73
2017-04-13T23:05:41.553Z,10.71
2017-04-13T23:07:48.944Z,10.71
2017-04-13T23:10:01.208Z,10.7
2017-04-13T23:12:13.624Z,10.69
2017-04-13T23:14:20.877Z,10.65
2017-04-13T23:16:33.127Z,10.65
2017-04-13T23:18:45.364Z,10.67
2017-04-13T23:20:57.653Z,10.69
2017-04-13T23:23:09.864Z,10.72
2017-04-13T23:25:22.169Z,10.77
2017-04-13T23:27:34.519Z,10.83
2017-04-13T23:29:46.751Z,10.88
2017-04-13T23:31:59.011Z,10.92
2017-04-13T23:34:06.372Z,10.97
2017-04-13T23:36:18.544Z,11
2017-04-13T23:38:25.856Z,11.03
2017-04-13T23:40:38.089Z,11.04
2017-04-13T23:42:50.399Z,11.06
2017-04-13T23:45:02.730Z,11.08
2017-04-13T23:47:15.048Z,11.08
2017-04-13T23:49:27.332Z,11.13
2017-04-13T23:51:39.626Z,11.17
2017-04-13T23:53:51.859Z,11.18
2017-04-13T23:56:04.221Z,11.21
2017-04-13T23:58:16.504Z,11.21
